sensor_id;sensor_type;location;lat;lon;timestamp;P1;durP1;ratioP1;P2;durP2;ratioP2
73699;SDS011;62005;50.082;8.988;2024-02-15T00:00:16;3.45;;;1.10;;
73699;SDS011;62005;50.082;8.988;2024-02-15T00:02:42;2.80;;;1.30;;
73699;SDS011;62005;50.082;8.988;2024-02-15T00:05:09;4.32;;;1.33;;
73699;SDS011;62005;50.082;8.988;2024-02-15T00:07:39;2.17;;;1.15;;
73699;SDS011;62005;50.082;8.988;2024-02-15T00:10:05;2.83;;;1.10;;
73699;SDS011;62005;50.082;8.988;2024-02-15T00:12:31;2.20;;;1.05;;
73699;SDS011;62005;50.082;8.988;2024-02-15T00:14:56;3.38;;;1.20;;
73699;SDS011;62005;50.082;8.988;2024-02-15T00:17:23;3.72;;;1.83;;
73699;SDS011;62005;50.082;8.988;2024-02-15T00:19:50;3.75;;;1.30;;
73699;SDS011;62005;50.082;8.988;2024-02-15T00:22:16;4.70;;;1.45;;
73699;SDS011;62005;50.082;8.988;2024-02-15T00:24:46;3.65;;;0.90;;
73699;SDS011;62005;50.082;8.988;2024-02-15T00:27:13;3.60;;;1.38;;
73699;SDS011;62005;50.082;8.988;2024-02-15T00:29:40;3.25;;;1.05;;
73699;SDS011;62005;50.082;8.988;2024-02-15T00:32:06;2.53;;;0.95;;
73699;SDS011;62005;50.082;8.988;2024-02-15T00:34:31;2.25;;;1.10;;
73699;SDS011;62005;50.082;8.988;2024-02-15T00:36:57;3.07;;;1.07;;
73699;SDS011;62005;50.082;8.988;2024-02-15T00:39:22;1.92;;;0.80;;
73699;SDS011;62005;50.082;8.988;2024-02-15T00:41:48;5.57;;;1.27;;
73699;SDS011;62005;50.082;8.988;2024-02-15T00:44:13;5.38;;;1.48;;
73699;SDS011;62005;50.082;8.988;2024-02-15T00:46:39;2.35;;;1.10;;
73699;SDS011;62005;50.082;8.988;2024-02-15T00:51:32;6.38;;;1.92;;
73699;SDS011;62005;50.082;8.988;2024-02-15T00:53:59;4.22;;;1.45;;
73699;SDS011;62005;50.082;8.988;2024-02-15T00:56:25;3.08;;;1.02;;
73699;SDS011;62005;50.082;8.988;2024-02-15T00:58:51;3.95;;;1.45;;
73699;SDS011;62005;50.082;8.988;2024-02-15T01:01:16;2.67;;;1.20;;
73699;SDS011;62005;50.082;8.988;2024-02-15T01:03:42;4.40;;;1.35;;
73699;SDS011;62005;50.082;8.988;2024-02-15T01:06:07;3.58;;;1.30;;
73699;SDS011;62005;50.082;8.988;2024-02-15T01:08:33;4.07;;;1.20;;
73699;SDS011;62005;50.082;8.988;2024-02-15T01:10:59;3.85;;;1.38;;
73699;SDS011;62005;50.082;8.988;2024-02-15T01:13:24;3.92;;;1.15;;
73699;SDS011;62005;50.082;8.988;2024-02-15T01:15:50;3.63;;;1.23;;
73699;SDS011;62005;50.082;8.988;2024-02-15T01:18:16;2.25;;;1.38;;
73699;SDS011;62005;50.082;8.988;2024-02-15T01:20:41;2.70;;;1.20;;
73699;SDS011;62005;50.082;8.988;2024-02-15T01:23:06;3.70;;;1.10;;
73699;SDS011;62005;50.082;8.988;2024-02-15T01:25:32;2.30;;;1.15;;
73699;SDS011;62005;50.082;8.988;2024-02-15T01:27:58;2.58;;;1.20;;
73699;SDS011;62005;50.082;8.988;2024-02-15T01:30:24;2.53;;;1.25;;
73699;SDS011;62005;50.082;8.988;2024-02-15T01:32:49;4.53;;;1.83;;
73699;SDS011;62005;50.082;8.988;2024-02-15T01:35:14;3.92;;;1.42;;
73699;SDS011;62005;50.082;8.988;2024-02-15T01:37:40;3.78;;;1.50;;
73699;SDS011;62005;50.082;8.988;2024-02-15T01:40:06;2.70;;;1.35;;
73699;SDS011;62005;50.082;8.988;2024-02-15T01:42:32;4.50;;;1.50;;
73699;SDS011;62005;50.082;8.988;2024-02-15T01:44:57;4.20;;;1.08;;
73699;SDS011;62005;50.082;8.988;2024-02-15T01:47:23;2.83;;;1.45;;
73699;SDS011;62005;50.082;8.988;2024-02-15T01:49:49;4.05;;;1.73;;
73699;SDS011;62005;50.082;8.988;2024-02-15T01:52:17;1.98;;;1.27;;
73699;SDS011;62005;50.082;8.988;2024-02-15T01:54:43;3.65;;;1.08;;
73699;SDS011;62005;50.082;8.988;2024-02-15T01:57:10;2.80;;;1.10;;
73699;SDS011;62005;50.082;8.988;2024-02-15T01:59:35;2.50;;;1.00;;
73699;SDS011;62005;50.082;8.988;2024-02-15T02:02:02;4.63;;;1.40;;
73699;SDS011;62005;50.082;8.988;2024-02-15T02:04:29;7.35;;;1.30;;
73699;SDS011;62005;50.082;8.988;2024-02-15T02:06:57;2.90;;;1.35;;
73699;SDS011;62005;50.082;8.988;2024-02-15T02:09:24;3.67;;;1.02;;
73699;SDS011;62005;50.082;8.988;2024-02-15T02:11:49;2.60;;;1.08;;
73699;SDS011;62005;50.082;8.988;2024-02-15T02:14:16;3.53;;;1.40;;
73699;SDS011;62005;50.082;8.988;2024-02-15T02:16:41;3.85;;;1.27;;
73699;SDS011;62005;50.082;8.988;2024-02-15T02:19:07;4.07;;;1.20;;
73699;SDS011;62005;50.082;8.988;2024-02-15T02:21:34;2.70;;;1.23;;
73699;SDS011;62005;50.082;8.988;2024-02-15T02:24:02;4.18;;;1.33;;
73699;SDS011;62005;50.082;8.988;2024-02-15T02:26:33;2.20;;;1.17;;
73699;SDS011;62005;50.082;8.988;2024-02-15T02:29:02;3.53;;;1.27;;
73699;SDS011;62005;50.082;8.988;2024-02-15T02:31:32;4.18;;;1.40;;
73699;SDS011;62005;50.082;8.988;2024-02-15T02:34:01;6.28;;;1.30;;
73699;SDS011;62005;50.082;8.988;2024-02-15T02:36:26;3.53;;;1.50;;
73699;SDS011;62005;50.082;8.988;2024-02-15T02:41:20;3.17;;;1.30;;
73699;SDS011;62005;50.082;8.988;2024-02-15T02:43:46;3.05;;;1.20;;
73699;SDS011;62005;50.082;8.988;2024-02-15T02:46:11;5.13;;;1.38;;
73699;SDS011;62005;50.082;8.988;2024-02-15T02:48:38;3.63;;;1.33;;
73699;SDS011;62005;50.082;8.988;2024-02-15T02:51:04;5.63;;;1.02;;
73699;SDS011;62005;50.082;8.988;2024-02-15T02:53:30;2.85;;;1.10;;
73699;SDS011;62005;50.082;8.988;2024-02-15T02:55:58;3.97;;;1.38;;
73699;SDS011;62005;50.082;8.988;2024-02-15T02:58:24;2.05;;;1.13;;
73699;SDS011;62005;50.082;8.988;2024-02-15T03:00:49;3.15;;;1.10;;
73699;SDS011;62005;50.082;8.988;2024-02-15T03:03:16;2.30;;;1.05;;
73699;SDS011;62005;50.082;8.988;2024-02-15T03:05:42;4.97;;;1.67;;
73699;SDS011;62005;50.082;8.988;2024-02-15T03:08:08;4.00;;;1.27;;
73699;SDS011;62005;50.082;8.988;2024-02-15T03:10:34;3.78;;;1.13;;
73699;SDS011;62005;50.082;8.988;2024-02-15T03:13:00;3.70;;;1.23;;
73699;SDS011;62005;50.082;8.988;2024-02-15T03:15:25;4.43;;;1.42;;
73699;SDS011;62005;50.082;8.988;2024-02-15T03:17:50;3.25;;;1.52;;
73699;SDS011;62005;50.082;8.988;2024-02-15T03:20:16;3.08;;;1.13;;
73699;SDS011;62005;50.082;8.988;2024-02-15T03:22:50;5.10;;;1.63;;
73699;SDS011;62005;50.082;8.988;2024-02-15T03:25:17;2.05;;;1.02;;
73699;SDS011;62005;50.082;8.988;2024-02-15T03:27:43;2.60;;;1.20;;
73699;SDS011;62005;50.082;8.988;2024-02-15T03:30:08;4.70;;;1.33;;
73699;SDS011;62005;50.082;8.988;2024-02-15T03:32:35;4.97;;;1.30;;
73699;SDS011;62005;50.082;8.988;2024-02-15T03:35:01;3.25;;;1.58;;
73699;SDS011;62005;50.082;8.988;2024-02-15T03:37:26;2.97;;;1.10;;
73699;SDS011;62005;50.082;8.988;2024-02-15T03:39:52;3.83;;;1.45;;
73699;SDS011;62005;50.082;8.988;2024-02-15T03:42:17;4.27;;;1.50;;
73699;SDS011;62005;50.082;8.988;2024-02-15T03:44:43;2.13;;;1.17;;
73699;SDS011;62005;50.082;8.988;2024-02-15T03:47:08;3.70;;;1.55;;
73699;SDS011;62005;50.082;8.988;2024-02-15T03:49:33;2.20;;;1.17;;
73699;SDS011;62005;50.082;8.988;2024-02-15T03:51:59;4.40;;;1.43;;
73699;SDS011;62005;50.082;8.988;2024-02-15T03:54:27;2.97;;;1.38;;
73699;SDS011;62005;50.082;8.988;2024-02-15T03:56:54;3.65;;;1.40;;
73699;SDS011;62005;50.082;8.988;2024-02-15T03:59:22;4.95;;;1.25;;
73699;SDS011;62005;50.082;8.988;2024-02-15T04:01:52;2.78;;;1.27;;
73699;SDS011;62005;50.082;8.988;2024-02-15T04:04:20;2.70;;;1.30;;
73699;SDS011;62005;50.082;8.988;2024-02-15T04:06:49;2.70;;;1.33;;
73699;SDS011;62005;50.082;8.988;2024-02-15T04:09:15;6.55;;;1.48;;
73699;SDS011;62005;50.082;8.988;2024-02-15T04:11:42;6.78;;;2.03;;
73699;SDS011;62005;50.082;8.988;2024-02-15T04:14:08;2.78;;;1.30;;
73699;SDS011;62005;50.082;8.988;2024-02-15T04:16:34;3.88;;;1.73;;
73699;SDS011;62005;50.082;8.988;2024-02-15T04:19:01;6.50;;;1.00;;
73699;SDS011;62005;50.082;8.988;2024-02-15T04:21:26;3.28;;;1.08;;
73699;SDS011;62005;50.082;8.988;2024-02-15T04:23:52;3.65;;;1.67;;
73699;SDS011;62005;50.082;8.988;2024-02-15T04:26:19;6.57;;;1.75;;
73699;SDS011;62005;50.082;8.988;2024-02-15T04:28:45;2.20;;;1.00;;
73699;SDS011;62005;50.082;8.988;2024-02-15T04:31:17;3.85;;;1.02;;
73699;SDS011;62005;50.082;8.988;2024-02-15T04:33:42;3.17;;;1.13;;
73699;SDS011;62005;50.082;8.988;2024-02-15T04:36:08;4.40;;;1.23;;
73699;SDS011;62005;50.082;8.988;2024-02-15T04:38:33;4.03;;;1.38;;
73699;SDS011;62005;50.082;8.988;2024-02-15T04:41:00;5.00;;;1.27;;
73699;SDS011;62005;50.082;8.988;2024-02-15T04:43:26;5.25;;;1.30;;
73699;SDS011;62005;50.082;8.988;2024-02-15T04:45:52;3.03;;;1.23;;
73699;SDS011;62005;50.082;8.988;2024-02-15T04:48:17;3.80;;;1.08;;
73699;SDS011;62005;50.082;8.988;2024-02-15T04:50:44;4.50;;;1.83;;
73699;SDS011;62005;50.082;8.988;2024-02-15T04:53:10;3.38;;;1.15;;
73699;SDS011;62005;50.082;8.988;2024-02-15T04:55:36;4.25;;;1.13;;
73699;SDS011;62005;50.082;8.988;2024-02-15T04:58:02;2.45;;;1.05;;
73699;SDS011;62005;50.082;8.988;2024-02-15T05:00:29;3.90;;;1.02;;
73699;SDS011;62005;50.082;8.988;2024-02-15T05:02:55;4.40;;;1.25;;
73699;SDS011;62005;50.082;8.988;2024-02-15T05:05:20;3.95;;;1.15;;
73699;SDS011;62005;50.082;8.988;2024-02-15T05:07:46;3.90;;;1.50;;
73699;SDS011;62005;50.082;8.988;2024-02-15T05:10:14;4.38;;;1.20;;
73699;SDS011;62005;50.082;8.988;2024-02-15T05:12:41;3.38;;;1.38;;
73699;SDS011;62005;50.082;8.988;2024-02-15T05:15:07;3.70;;;1.50;;
73699;SDS011;62005;50.082;8.988;2024-02-15T05:17:39;3.95;;;1.77;;
73699;SDS011;62005;50.082;8.988;2024-02-15T05:20:08;5.50;;;1.38;;
73699;SDS011;62005;50.082;8.988;2024-02-15T05:22:38;4.28;;;1.40;;
73699;SDS011;62005;50.082;8.988;2024-02-15T05:25:08;4.65;;;1.48;;
73699;SDS011;62005;50.082;8.988;2024-02-15T05:27:34;4.28;;;1.30;;
73699;SDS011;62005;50.082;8.988;2024-02-15T05:32:26;4.63;;;1.17;;
73699;SDS011;62005;50.082;8.988;2024-02-15T05:34:52;2.97;;;1.35;;
73699;SDS011;62005;50.082;8.988;2024-02-15T05:37:20;3.70;;;1.25;;
73699;SDS011;62005;50.082;8.988;2024-02-15T05:39:45;3.35;;;1.40;;
73699;SDS011;62005;50.082;8.988;2024-02-15T05:42:11;4.70;;;1.00;;
73699;SDS011;62005;50.082;8.988;2024-02-15T05:44:36;5.97;;;0.93;;
73699;SDS011;62005;50.082;8.988;2024-02-15T05:47:01;4.75;;;1.30;;
73699;SDS011;62005;50.082;8.988;2024-02-15T05:49:27;4.43;;;1.13;;
73699;SDS011;62005;50.082;8.988;2024-02-15T05:51:52;6.43;;;1.15;;
73699;SDS011;62005;50.082;8.988;2024-02-15T05:54:21;4.20;;;1.13;;
73699;SDS011;62005;50.082;8.988;2024-02-15T05:56:50;5.13;;;1.13;;
73699;SDS011;62005;50.082;8.988;2024-02-15T05:59:18;4.22;;;1.00;;
73699;SDS011;62005;50.082;8.988;2024-02-15T06:01:45;3.15;;;1.13;;
73699;SDS011;62005;50.082;8.988;2024-02-15T06:04:13;3.45;;;0.93;;
73699;SDS011;62005;50.082;8.988;2024-02-15T06:06:40;3.50;;;1.20;;
73699;SDS011;62005;50.082;8.988;2024-02-15T06:09:05;4.32;;;1.35;;
73699;SDS011;62005;50.082;8.988;2024-02-15T06:11:31;2.58;;;0.75;;
73699;SDS011;62005;50.082;8.988;2024-02-15T06:13:56;5.47;;;1.13;;
73699;SDS011;62005;50.082;8.988;2024-02-15T06:16:21;6.47;;;1.20;;
73699;SDS011;62005;50.082;8.988;2024-02-15T06:18:47;6.65;;;1.80;;
73699;SDS011;62005;50.082;8.988;2024-02-15T06:21:13;5.30;;;1.88;;
73699;SDS011;62005;50.082;8.988;2024-02-15T06:23:38;3.97;;;1.38;;
73699;SDS011;62005;50.082;8.988;2024-02-15T06:26:04;3.88;;;1.02;;
73699;SDS011;62005;50.082;8.988;2024-02-15T06:28:30;4.30;;;1.30;;
73699;SDS011;62005;50.082;8.988;2024-02-15T06:31:14;4.28;;;1.52;;
73699;SDS011;62005;50.082;8.988;2024-02-15T06:33:58;6.28;;;2.00;;
73699;SDS011;62005;50.082;8.988;2024-02-15T06:36:46;5.45;;;2.08;;
73699;SDS011;62005;50.082;8.988;2024-02-15T06:39:31;5.07;;;1.45;;
73699;SDS011;62005;50.082;8.988;2024-02-15T06:42:03;4.72;;;1.80;;
73699;SDS011;62005;50.082;8.988;2024-02-15T06:44:29;8.68;;;1.33;;
73699;SDS011;62005;50.082;8.988;2024-02-15T06:46:55;5.32;;;1.45;;
73699;SDS011;62005;50.082;8.988;2024-02-15T06:49:21;5.05;;;1.75;;
73699;SDS011;62005;50.082;8.988;2024-02-15T06:51:48;5.20;;;1.48;;
73699;SDS011;62005;50.082;8.988;2024-02-15T06:54:13;4.00;;;1.20;;
73699;SDS011;62005;50.082;8.988;2024-02-15T06:56:39;6.63;;;2.22;;
73699;SDS011;62005;50.082;8.988;2024-02-15T06:59:05;2.92;;;1.38;;
73699;SDS011;62005;50.082;8.988;2024-02-15T07:01:32;3.13;;;1.35;;
73699;SDS011;62005;50.082;8.988;2024-02-15T07:03:59;5.25;;;1.20;;
73699;SDS011;62005;50.082;8.988;2024-02-15T07:06:25;4.03;;;1.45;;
73699;SDS011;62005;50.082;8.988;2024-02-15T07:11:20;3.13;;;1.15;;
73699;SDS011;62005;50.082;8.988;2024-02-15T07:13:46;5.35;;;1.55;;
73699;SDS011;62005;50.082;8.988;2024-02-15T07:16:12;4.20;;;1.20;;
73699;SDS011;62005;50.082;8.988;2024-02-15T07:18:38;5.55;;;1.58;;
73699;SDS011;62005;50.082;8.988;2024-02-15T07:21:04;6.85;;;1.92;;
73699;SDS011;62005;50.082;8.988;2024-02-15T07:23:36;3.30;;;1.52;;
73699;SDS011;62005;50.082;8.988;2024-02-15T07:26:01;5.45;;;1.40;;
73699;SDS011;62005;50.082;8.988;2024-02-15T07:28:28;3.15;;;1.60;;
73699;SDS011;62005;50.082;8.988;2024-02-15T07:30:56;3.80;;;1.35;;
73699;SDS011;62005;50.082;8.988;2024-02-15T07:33:24;2.97;;;1.08;;
73699;SDS011;62005;50.082;8.988;2024-02-15T07:35:49;6.32;;;1.65;;
73699;SDS011;62005;50.082;8.988;2024-02-15T07:38:16;3.25;;;1.23;;
73699;SDS011;62005;50.082;8.988;2024-02-15T07:40:44;3.40;;;1.38;;
73699;SDS011;62005;50.082;8.988;2024-02-15T07:43:10;2.65;;;1.25;;
73699;SDS011;62005;50.082;8.988;2024-02-15T07:45:35;5.47;;;1.98;;
73699;SDS011;62005;50.082;8.988;2024-02-15T07:48:02;5.03;;;1.80;;
73699;SDS011;62005;50.082;8.988;2024-02-15T07:50:32;4.68;;;1.45;;
73699;SDS011;62005;50.082;8.988;2024-02-15T07:52:57;3.85;;;1.63;;
73699;SDS011;62005;50.082;8.988;2024-02-15T07:55:23;3.60;;;1.52;;
73699;SDS011;62005;50.082;8.988;2024-02-15T07:57:49;5.03;;;1.73;;
73699;SDS011;62005;50.082;8.988;2024-02-15T08:00:19;4.00;;;1.42;;
73699;SDS011;62005;50.082;8.988;2024-02-15T08:02:45;6.15;;;1.52;;
73699;SDS011;62005;50.082;8.988;2024-02-15T08:05:11;7.22;;;1.33;;
73699;SDS011;62005;50.082;8.988;2024-02-15T08:10:14;7.93;;;1.30;;
73699;SDS011;62005;50.082;8.988;2024-02-15T08:12:43;2.65;;;1.00;;
73699;SDS011;62005;50.082;8.988;2024-02-15T08:15:10;3.72;;;1.13;;
73699;SDS011;62005;50.082;8.988;2024-02-15T08:17:40;5.65;;;1.30;;
73699;SDS011;62005;50.082;8.988;2024-02-15T08:20:10;4.63;;;1.50;;
73699;SDS011;62005;50.082;8.988;2024-02-15T08:22:36;4.78;;;1.48;;
73699;SDS011;62005;50.082;8.988;2024-02-15T08:25:09;5.20;;;1.25;;
73699;SDS011;62005;50.082;8.988;2024-02-15T08:27:43;4.10;;;1.38;;
73699;SDS011;62005;50.082;8.988;2024-02-15T08:30:15;3.75;;;1.20;;
73699;SDS011;62005;50.082;8.988;2024-02-15T08:32:44;7.88;;;1.63;;
73699;SDS011;62005;50.082;8.988;2024-02-15T08:35:13;3.83;;;1.45;;
73699;SDS011;62005;50.082;8.988;2024-02-15T08:37:39;4.43;;;1.10;;
73699;SDS011;62005;50.082;8.988;2024-02-15T08:40:07;4.20;;;1.23;;
73699;SDS011;62005;50.082;8.988;2024-02-15T08:42:39;3.35;;;0.90;;
73699;SDS011;62005;50.082;8.988;2024-02-15T08:45:08;5.63;;;1.45;;
73699;SDS011;62005;50.082;8.988;2024-02-15T08:47:37;5.75;;;1.48;;
73699;SDS011;62005;50.082;8.988;2024-02-15T08:50:04;4.55;;;1.10;;
73699;SDS011;62005;50.082;8.988;2024-02-15T08:52:30;5.55;;;1.23;;
73699;SDS011;62005;50.082;8.988;2024-02-15T08:54:56;3.67;;;0.88;;
73699;SDS011;62005;50.082;8.988;2024-02-15T08:57:24;3.03;;;0.80;;
73699;SDS011;62005;50.082;8.988;2024-02-15T08:59:50;6.20;;;1.52;;
73699;SDS011;62005;50.082;8.988;2024-02-15T09:02:17;4.78;;;1.50;;
73699;SDS011;62005;50.082;8.988;2024-02-15T09:04:42;6.88;;;0.82;;
73699;SDS011;62005;50.082;8.988;2024-02-15T09:07:08;3.83;;;1.08;;
73699;SDS011;62005;50.082;8.988;2024-02-15T09:09:34;7.03;;;1.38;;
73699;SDS011;62005;50.082;8.988;2024-02-15T09:12:02;5.18;;;1.17;;
73699;SDS011;62005;50.082;8.988;2024-02-15T09:14:33;4.50;;;1.17;;
73699;SDS011;62005;50.082;8.988;2024-02-15T09:16:59;3.85;;;0.85;;
73699;SDS011;62005;50.082;8.988;2024-02-15T09:19:25;7.90;;;1.20;;
73699;SDS011;62005;50.082;8.988;2024-02-15T09:21:51;5.43;;;1.40;;
73699;SDS011;62005;50.082;8.988;2024-02-15T09:24:19;5.18;;;1.45;;
73699;SDS011;62005;50.082;8.988;2024-02-15T09:26:50;3.72;;;1.38;;
73699;SDS011;62005;50.082;8.988;2024-02-15T09:29:20;6.88;;;1.42;;
73699;SDS011;62005;50.082;8.988;2024-02-15T09:31:48;4.20;;;1.17;;
73699;SDS011;62005;50.082;8.988;2024-02-15T09:34:14;7.03;;;1.10;;
73699;SDS011;62005;50.082;8.988;2024-02-15T09:36:39;2.97;;;0.90;;
73699;SDS011;62005;50.082;8.988;2024-02-15T09:39:05;5.07;;;1.00;;
73699;SDS011;62005;50.082;8.988;2024-02-15T09:41:31;8.45;;;1.25;;
73699;SDS011;62005;50.082;8.988;2024-02-15T09:43:57;4.45;;;1.25;;
73699;SDS011;62005;50.082;8.988;2024-02-15T09:46:23;5.00;;;1.13;;
73699;SDS011;62005;50.082;8.988;2024-02-15T09:48:51;2.67;;;0.95;;
73699;SDS011;62005;50.082;8.988;2024-02-15T09:51:23;7.95;;;1.33;;
73699;SDS011;62005;50.082;8.988;2024-02-15T09:53:51;4.18;;;1.17;;
73699;SDS011;62005;50.082;8.988;2024-02-15T09:56:17;4.82;;;1.13;;
73699;SDS011;62005;50.082;8.988;2024-02-15T09:58:43;3.38;;;0.88;;
73699;SDS011;62005;50.082;8.988;2024-02-15T10:01:10;3.45;;;1.10;;
73699;SDS011;62005;50.082;8.988;2024-02-15T10:03:37;3.63;;;1.40;;
73699;SDS011;62005;50.082;8.988;2024-02-15T10:06:05;7.80;;;1.23;;
73699;SDS011;62005;50.082;8.988;2024-02-15T10:08:31;3.88;;;1.55;;
73699;SDS011;62005;50.082;8.988;2024-02-15T10:11:06;3.88;;;1.00;;
73699;SDS011;62005;50.082;8.988;2024-02-15T10:13:33;4.38;;;0.88;;
73699;SDS011;62005;50.082;8.988;2024-02-15T10:15:59;3.88;;;1.00;;
73699;SDS011;62005;50.082;8.988;2024-02-15T10:18:38;3.28;;;0.95;;
73699;SDS011;62005;50.082;8.988;2024-02-15T10:21:04;4.15;;;1.17;;
73699;SDS011;62005;50.082;8.988;2024-02-15T10:23:29;3.22;;;0.82;;
73699;SDS011;62005;50.082;8.988;2024-02-15T10:25:55;4.03;;;1.08;;
73699;SDS011;62005;50.082;8.988;2024-02-15T10:28:21;3.72;;;0.82;;
73699;SDS011;62005;50.082;8.988;2024-02-15T10:30:50;4.93;;;1.10;;
73699;SDS011;62005;50.082;8.988;2024-02-15T10:33:27;3.08;;;1.05;;
73699;SDS011;62005;50.082;8.988;2024-02-15T10:36:06;3.03;;;0.77;;
73699;SDS011;62005;50.082;8.988;2024-02-15T10:38:39;3.80;;;0.93;;
73699;SDS011;62005;50.082;8.988;2024-02-15T10:41:05;2.40;;;0.73;;
73699;SDS011;62005;50.082;8.988;2024-02-15T10:43:33;5.35;;;0.80;;
73699;SDS011;62005;50.082;8.988;2024-02-15T10:45:59;4.63;;;0.90;;
73699;SDS011;62005;50.082;8.988;2024-02-15T10:48:26;5.95;;;0.90;;
73699;SDS011;62005;50.082;8.988;2024-02-15T10:50:53;3.60;;;0.82;;
73699;SDS011;62005;50.082;8.988;2024-02-15T10:53:23;3.97;;;1.23;;
73699;SDS011;62005;50.082;8.988;2024-02-15T10:56:06;4.13;;;0.88;;
73699;SDS011;62005;50.082;8.988;2024-02-15T10:58:54;4.40;;;1.08;;
73699;SDS011;62005;50.082;8.988;2024-02-15T11:01:25;5.47;;;1.10;;
73699;SDS011;62005;50.082;8.988;2024-02-15T11:03:57;4.03;;;1.00;;
73699;SDS011;62005;50.082;8.988;2024-02-15T11:06:26;3.92;;;1.13;;
73699;SDS011;62005;50.082;8.988;2024-02-15T11:08:54;3.63;;;0.82;;
73699;SDS011;62005;50.082;8.988;2024-02-15T11:11:20;4.30;;;0.93;;
73699;SDS011;62005;50.082;8.988;2024-02-15T11:13:46;3.90;;;1.55;;
73699;SDS011;62005;50.082;8.988;2024-02-15T11:19:06;2.72;;;0.98;;
73699;SDS011;62005;50.082;8.988;2024-02-15T11:24:25;2.55;;;0.68;;
73699;SDS011;62005;50.082;8.988;2024-02-15T11:26:52;4.00;;;0.82;;
73699;SDS011;62005;50.082;8.988;2024-02-15T11:32:40;3.53;;;0.60;;
73699;SDS011;62005;50.082;8.988;2024-02-15T11:40:13;3.15;;;0.45;;
73699;SDS011;62005;50.082;8.988;2024-02-15T11:42:45;3.40;;;0.70;;
73699;SDS011;62005;50.082;8.988;2024-02-15T11:45:15;3.35;;;0.77;;
73699;SDS011;62005;50.082;8.988;2024-02-15T11:47:45;9.80;;;1.10;;
73699;SDS011;62005;50.082;8.988;2024-02-15T11:50:15;3.30;;;0.73;;
73699;SDS011;62005;50.082;8.988;2024-02-15T11:52:41;2.40;;;0.50;;
73699;SDS011;62005;50.082;8.988;2024-02-15T11:55:10;3.00;;;0.50;;
73699;SDS011;62005;50.082;8.988;2024-02-15T11:57:41;1.92;;;0.52;;
73699;SDS011;62005;50.082;8.988;2024-02-15T12:00:21;6.47;;;1.70;;
73699;SDS011;62005;50.082;8.988;2024-02-15T12:03:08;2.17;;;0.45;;
73699;SDS011;62005;50.082;8.988;2024-02-15T12:05:54;1.92;;;0.50;;
73699;SDS011;62005;50.082;8.988;2024-02-15T12:08:39;2.65;;;0.40;;
73699;SDS011;62005;50.082;8.988;2024-02-15T12:11:23;4.75;;;0.60;;
73699;SDS011;62005;50.082;8.988;2024-02-15T12:14:07;1.80;;;0.30;;
73699;SDS011;62005;50.082;8.988;2024-02-15T12:17:02;1.70;;;0.20;;
73699;SDS011;62005;50.082;8.988;2024-02-15T12:19:48;2.03;;;0.20;;
73699;SDS011;62005;50.082;8.988;2024-02-15T12:22:16;4.25;;;0.30;;
73699;SDS011;62005;50.082;8.988;2024-02-15T12:24:45;4.45;;;0.98;;
73699;SDS011;62005;50.082;8.988;2024-02-15T12:27:18;3.58;;;0.22;;
73699;SDS011;62005;50.082;8.988;2024-02-15T12:29:45;2.63;;;0.35;;
73699;SDS011;62005;50.082;8.988;2024-02-15T12:32:19;1.70;;;0.10;;
73699;SDS011;62005;50.082;8.988;2024-02-15T12:34:45;3.47;;;0.25;;
73699;SDS011;62005;50.082;8.988;2024-02-15T12:37:12;2.47;;;0.20;;
73699;SDS011;62005;50.082;8.988;2024-02-15T12:39:38;2.13;;;0.22;;
73699;SDS011;62005;50.082;8.988;2024-02-15T12:42:03;3.30;;;0.57;;
73699;SDS011;62005;50.082;8.988;2024-02-15T12:44:32;3.00;;;0.30;;
73699;SDS011;62005;50.082;8.988;2024-02-15T12:46:59;2.10;;;0.20;;
73699;SDS011;62005;50.082;8.988;2024-02-15T12:51:53;2.20;;;0.10;;
73699;SDS011;62005;50.082;8.988;2024-02-15T12:54:39;3.33;;;0.35;;
73699;SDS011;62005;50.082;8.988;2024-02-15T12:57:08;2.20;;;0.20;;
73699;SDS011;62005;50.082;8.988;2024-02-15T12:59:39;1.38;;;0.20;;
73699;SDS011;62005;50.082;8.988;2024-02-15T13:02:04;2.20;;;0.20;;
73699;SDS011;62005;50.082;8.988;2024-02-15T13:04:30;3.40;;;0.20;;
73699;SDS011;62005;50.082;8.988;2024-02-15T13:06:56;3.28;;;0.20;;
73699;SDS011;62005;50.082;8.988;2024-02-15T13:09:21;1.70;;;0.35;;
73699;SDS011;62005;50.082;8.988;2024-02-15T13:11:50;5.40;;;0.30;;
73699;SDS011;62005;50.082;8.988;2024-02-15T13:14:18;2.90;;;0.32;;
73699;SDS011;62005;50.082;8.988;2024-02-15T13:16:45;3.15;;;0.30;;
73699;SDS011;62005;50.082;8.988;2024-02-15T13:19:13;3.00;;;0.10;;
73699;SDS011;62005;50.082;8.988;2024-02-15T13:21:38;2.78;;;0.30;;
73699;SDS011;62005;50.082;8.988;2024-02-15T13:24:04;2.63;;;0.28;;
73699;SDS011;62005;50.082;8.988;2024-02-15T13:26:32;1.52;;;0.10;;
73699;SDS011;62005;50.082;8.988;2024-02-15T13:28:59;1.55;;;0.10;;
73699;SDS011;62005;50.082;8.988;2024-02-15T13:31:25;1.73;;;0.20;;
73699;SDS011;62005;50.082;8.988;2024-02-15T13:33:52;1.90;;;0.10;;
73699;SDS011;62005;50.082;8.988;2024-02-15T13:36:18;1.65;;;0.20;;
73699;SDS011;62005;50.082;8.988;2024-02-15T13:38:45;2.72;;;0.30;;
73699;SDS011;62005;50.082;8.988;2024-02-15T13:41:10;3.80;;;0.20;;
73699;SDS011;62005;50.082;8.988;2024-02-15T13:43:36;2.70;;;0.10;;
73699;SDS011;62005;50.082;8.988;2024-02-15T13:46:02;2.55;;;0.30;;
73699;SDS011;62005;50.082;8.988;2024-02-15T13:48:29;1.48;;;0.20;;
73699;SDS011;62005;50.082;8.988;2024-02-15T13:50:56;1.60;;;0.10;;
73699;SDS011;62005;50.082;8.988;2024-02-15T13:53:23;1.40;;;0.10;;
73699;SDS011;62005;50.082;8.988;2024-02-15T13:55:51;1.70;;;0.13;;
73699;SDS011;62005;50.082;8.988;2024-02-15T13:58:20;1.20;;;0.10;;
73699;SDS011;62005;50.082;8.988;2024-02-15T14:00:46;1.27;;;0.15;;
73699;SDS011;62005;50.082;8.988;2024-02-15T14:03:13;2.00;;;0.30;;
73699;SDS011;62005;50.082;8.988;2024-02-15T14:05:40;2.85;;;0.35;;
73699;SDS011;62005;50.082;8.988;2024-02-15T14:10:36;2.17;;;0.10;;
73699;SDS011;62005;50.082;8.988;2024-02-15T14:13:02;2.03;;;0.05;;
73699;SDS011;62005;50.082;8.988;2024-02-15T14:15:31;1.77;;;0.20;;
73699;SDS011;62005;50.082;8.988;2024-02-15T14:20:29;2.45;;;0.20;;
73699;SDS011;62005;50.082;8.988;2024-02-15T14:22:55;1.55;;;0.10;;
73699;SDS011;62005;50.082;8.988;2024-02-15T14:25:24;1.15;;;0.10;;
73699;SDS011;62005;50.082;8.988;2024-02-15T14:27:56;1.80;;;0.30;;
73699;SDS011;62005;50.082;8.988;2024-02-15T14:30:22;5.00;;;0.38;;
73699;SDS011;62005;50.082;8.988;2024-02-15T14:33:06;2.88;;;0.10;;
73699;SDS011;62005;50.082;8.988;2024-02-15T14:35:37;3.15;;;0.32;;
73699;SDS011;62005;50.082;8.988;2024-02-15T14:38:08;1.58;;;0.10;;
73699;SDS011;62005;50.082;8.988;2024-02-15T14:40:39;2.45;;;0.45;;
73699;SDS011;62005;50.082;8.988;2024-02-15T14:43:22;2.03;;;0.32;;
73699;SDS011;62005;50.082;8.988;2024-02-15T14:45:48;3.67;;;0.80;;
73699;SDS011;62005;50.082;8.988;2024-02-15T14:48:14;1.52;;;0.32;;
73699;SDS011;62005;50.082;8.988;2024-02-15T14:50:42;2.88;;;0.55;;
73699;SDS011;62005;50.082;8.988;2024-02-15T14:53:09;2.45;;;0.20;;
73699;SDS011;62005;50.082;8.988;2024-02-15T14:55:35;3.13;;;0.30;;
73699;SDS011;62005;50.082;8.988;2024-02-15T14:58:03;2.95;;;0.38;;
73699;SDS011;62005;50.082;8.988;2024-02-15T15:00:35;3.65;;;0.43;;
73699;SDS011;62005;50.082;8.988;2024-02-15T15:03:00;1.63;;;0.15;;
73699;SDS011;62005;50.082;8.988;2024-02-15T15:05:25;1.65;;;0.10;;
73699;SDS011;62005;50.082;8.988;2024-02-15T15:08:10;1.25;;;0.20;;
73699;SDS011;62005;50.082;8.988;2024-02-15T15:10:54;3.70;;;0.30;;
73699;SDS011;62005;50.082;8.988;2024-02-15T15:13:39;1.92;;;0.30;;
73699;SDS011;62005;50.082;8.988;2024-02-15T15:16:05;2.90;;;0.50;;
73699;SDS011;62005;50.082;8.988;2024-02-15T15:18:32;1.77;;;0.20;;
73699;SDS011;62005;50.082;8.988;2024-02-15T15:21:01;2.55;;;0.20;;
73699;SDS011;62005;50.082;8.988;2024-02-15T15:23:27;3.28;;;0.17;;
73699;SDS011;62005;50.082;8.988;2024-02-15T15:25:59;2.58;;;0.20;;